Wetterdaten: Woche 24.11.14 - 30.11.14 (KW48)
Datum Zeit Temp. A. Feuchte A. Luftdruck Regen Wind Richtung Sonnenschein ET UV Solar Taupunkt Windchill Windben
24.11.2014 00:00 2,5 C 97 % 1024,4 hPa 0,0 l/m 0,7 km/h (0 Bft) N 0,00 h 0,000 mm 0,0 UV-I 0 W/m 2,0 C 2,5 C 1,9 km/h (1 Bft)
24.11.2014 01:00 2,7 C 97 % 1024,0 hPa 0,0 l/m 0,1 km/h (0 Bft) N 0,00 h 0,000 mm 0,0 UV-I 0 W/m 2,2 C 2,7 C 0,8 km/h (0 Bft)
24.11.2014 02:00 2,1 C 96 % 1023,9 hPa 0,0 l/m 0,1 km/h (0 Bft) N 0,00 h 0,000 mm 0,0 UV-I 0 W/m 1,5 C 2,1 C 0,3 km/h (0 Bft)
24.11.2014 03:00 2,0 C 96 % 1023,8 hPa 0,0 l/m 0,2 km/h (0 Bft) N 0,00 h 0,000 mm 0,0 UV-I 0 W/m 1,5 C 2,0 C 0,9 km/h (0 Bft)
24.11.2014 04:00 1,8 C 97 % 1023,3 hPa 0,0 l/m 0,1 km/h (0 Bft) N 0,00 h 0,000 mm 0,0 UV-I 0 W/m 1,4 C 1,8 C 0,6 km/h (0 Bft)
24.11.2014 05:00 2,1 C 97 % 1023,0 hPa 0,0 l/m 1,0 km/h (0 Bft) N 0,00 h 0,000 mm 0,0 UV-I 0 W/m 1,6 C 2,0 C 2,0 km/h (1 Bft)
24.11.2014 06:00 2,3 C 97 % 1023,0 hPa 0,0 l/m 1,8 km/h (1 Bft) N-NO 0,00 h 0,000 mm 0,0 UV-I 0 W/m 1,9 C 2,3 C 3,4 km/h (1 Bft)
24.11.2014 07:00 2,4 C 97 % 1023,1 hPa 0,0 l/m 0,1 km/h (0 Bft) N 0,00 h 0,000 mm 0,0 UV-I 5 W/m 2,0 C 2,4 C 0,6 km/h (0 Bft)
24.11.2014 08:00 2,6 C 97 % 1023,4 hPa 0,0 l/m 0,3 km/h (0 Bft) N 0,00 h 0,000 mm 0,0 UV-I 20 W/m 2,2 C 2,6 C 1,0 km/h (0 Bft)
24.11.2014 09:00 3,1 C 97 % 1024,1 hPa 0,0 l/m 0,7 km/h (0 Bft) N 0,20 h 0,000 mm 0,0 UV-I 44 W/m 2,7 C 3,1 C 2,2 km/h (1 Bft)
24.11.2014 10:00 3,6 C 97 % 1024,7 hPa 0,0 l/m 1,2 km/h (1 Bft) N-NW 0,85 h 0,025 mm 0,5 UV-I 75 W/m 3,2 C 3,6 C 2,9 km/h (1 Bft)
24.11.2014 11:00 3,9 C 95 % 1024,6 hPa 0,0 l/m 0,4 km/h (0 Bft) N 0,38 h 0,025 mm 0,0 UV-I 48 W/m 3,2 C 3,9 C 1,2 km/h (1 Bft)
24.11.2014 12:00 4,3 C 95 % 1024,6 hPa 0,0 l/m 0,4 km/h (0 Bft) N 0,72 h 0,025 mm 0,5 UV-I 59 W/m 3,5 C 4,3 C 1,2 km/h (1 Bft)
24.11.2014 13:00 4,7 C 94 % 1024,3 hPa 0,0 l/m 0,3 km/h (0 Bft) N 0,48 h 0,025 mm 0,0 UV-I 49 W/m 3,8 C 4,7 C 1,3 km/h (1 Bft)
24.11.2014 14:00 4,9 C 93 % 1024,7 hPa 0,0 l/m 0,7 km/h (0 Bft) N 0,00 h 0,025 mm 0,0 UV-I 27 W/m 3,9 C 4,9 C 1,6 km/h (1 Bft)
24.11.2014 15:00 5,1 C 93 % 1025,2 hPa 0,0 l/m 0,1 km/h (0 Bft) N 0,00 h 0,000 mm 0,0 UV-I 13 W/m 4,1 C 5,1 C 0,3 km/h (0 Bft)
24.11.2014 16:00 4,9 C 94 % 1025,6 hPa 0,0 l/m 0,0 km/h (0 Bft) N 0,00 h 0,000 mm 0,0 UV-I 0 W/m 4,0 C 4,9 C 0,0 km/h (0 Bft)
24.11.2014 17:00 4,9 C 95 % 1025,9 hPa 0,0 l/m 0,0 km/h (0 Bft) N 0,00 h 0,000 mm 0,0 UV-I 0 W/m 4,2 C 4,9 C 0,0 km/h (0 Bft)
24.11.2014 18:00 5,0 C 95 % 1026,3 hPa 0,0 l/m 0,0 km/h (0 Bft) N 0,00 h 0,000 mm 0,0 UV-I 0 W/m 4,3 C 5,0 C 0,1 km/h (0 Bft)
24.11.2014 19:00 5,1 C 95 % 1026,5 hPa 0,0 l/m 0,0 km/h (0 Bft) N 0,00 h 0,000 mm 0,0 UV-I 0 W/m 4,4 C 5,1 C 0,0 km/h (0 Bft)
24.11.2014 20:00 5,1 C 96 % 1026,7 hPa 0,0 l/m 0,0 km/h (0 Bft) N 0,00 h 0,000 mm 0,0 UV-I 0 W/m 4,4 C 5,1 C 0,1 km/h (0 Bft)
24.11.2014 21:00 4,9 C 96 % 1026,9 hPa 0,0 l/m 0,0 km/h (0 Bft) N 0,00 h 0,000 mm 0,0 UV-I 0 W/m 4,3 C 4,9 C 0,1 km/h (0 Bft)
24.11.2014 22:00 4,1 C 95 % 1027,3 hPa 0,0 l/m 0,5 km/h (0 Bft) N 0,00 h 0,000 mm 0,0 UV-I 0 W/m 3,4 C 4,1 C 1,8 km/h (1 Bft)
24.11.2014 23:00 3,6 C 96 % 1027,5 hPa 0,0 l/m 1,3 km/h (1 Bft) N 0,00 h 0,002 mm 0,0 UV-I 0 W/m 3,0 C 3,6 C 3,0 km/h (1 Bft)
25.11.2014 00:00 3,2 C 96 % 1027,4 hPa 0,0 l/m 0,9 km/h (0 Bft) N 0,00 h 0,000 mm 0,0 UV-I 0 W/m 2,6 C 3,2 C 1,8 km/h (1 Bft)
25.11.2014 01:00 2,7 C 96 % 1027,4 hPa 0,0 l/m 0,1 km/h (0 Bft) N 0,00 h 0,000 mm 0,0 UV-I 0 W/m 2,1 C 2,7 C 0,5 km/h (0 Bft)
25.11.2014 02:00 2,3 C 96 % 1027,3 hPa 0,0 l/m 0,2 km/h (0 Bft) N 0,00 h 0,000 mm 0,0 UV-I 0 W/m 1,7 C 2,3 C 0,9 km/h (0 Bft)
25.11.2014 03:00 2,0 C 97 % 1027,2 hPa 0,0 l/m 0,1 km/h (0 Bft) N 0,00 h 0,000 mm 0,0 UV-I 0 W/m 1,5 C 2,0 C 0,5 km/h (0 Bft)
25.11.2014 04:00 1,6 C 96 % 1027,3 hPa 0,0 l/m 0,4 km/h (0 Bft) N 0,00 h 0,000 mm 0,0 UV-I 0 W/m 1,1 C 1,6 C 1,1 km/h (1 Bft)
25.11.2014 05:00 0,7 C 96 % 1027,4 hPa 0,0 l/m 0,0 km/h (0 Bft) N 0,00 h 0,000 mm 0,0 UV-I 0 W/m 0,1 C 0,7 C 0,1 km/h (0 Bft)
25.11.2014 06:00 -0,1 C 95 % 1027,5 hPa 0,0 l/m 0,0 km/h (0 Bft) N 0,00 h 0,000 mm 0,0 UV-I 0 W/m -0,8 C -0,1 C 0,2 km/h (0 Bft)
25.11.2014 07:00 -0,6 C 96 % 1027,5 hPa 0,0 l/m 0,8 km/h (0 Bft) O-NO 0,00 h 0,000 mm 0,0 UV-I 9 W/m -1,2 C -0,6 C 2,4 km/h (1 Bft)
25.11.2014 08:00 0,3 C 97 % 1027,5 hPa 0,0 l/m 1,3 km/h (1 Bft) O-NO 0,48 h 0,000 mm 0,0 UV-I 53 W/m -0,1 C 0,3 C 3,7 km/h (1 Bft)
25.11.2014 09:00 2,6 C 98 % 1027,3 hPa 0,0 l/m 1,3 km/h (1 Bft) O-NO 1,00 h 0,025 mm 0,5 UV-I 151 W/m 2,3 C 2,6 C 4,1 km/h (1 Bft)
25.11.2014 10:00 4,9 C 90 % 1027,3 hPa 0,0 l/m 2,9 km/h (1 Bft) O-NO 1,00 h 0,051 mm 0,8 UV-I 216 W/m 3,3 C 4,8 C 6,2 km/h (2 Bft)
25.11.2014 11:00 4,8 C 89 % 1026,8 hPa 0,0 l/m 4,3 km/h (1 Bft) O-SO 1,00 h 0,076 mm 0,7 UV-I 122 W/m 3,1 C 4,6 C 8,9 km/h (2 Bft)
25.11.2014 12:00 5,4 C 85 % 1026,3 hPa 0,0 l/m 4,1 km/h (1 Bft) SO 1,00 h 0,051 mm 0,9 UV-I 161 W/m 3,1 C 5,2 C 8,7 km/h (2 Bft)
25.11.2014 13:00 5,7 C 82 % 1026,0 hPa 0,0 l/m 7,4 km/h (2 Bft) SO 1,00 h 0,076 mm 0,8 UV-I 271 W/m 2,9 C 4,3 C 13,5 km/h (3 Bft)
25.11.2014 14:00 5,1 C 83 % 1025,7 hPa 0,0 l/m 7,0 km/h (2 Bft) O-SO 0,85 h 0,127 mm 0,6 UV-I 149 W/m 2,5 C 3,9 C 13,3 km/h (3 Bft)
25.11.2014 15:00 3,8 C 86 % 1025,6 hPa 0,0 l/m 5,9 km/h (2 Bft) O 0,00 h 0,076 mm 0,0 UV-I 18 W/m 1,8 C 2,9 C 12,0 km/h (2 Bft)
25.11.2014 16:00 3,1 C 88 % 1025,5 hPa 0,0 l/m 8,9 km/h (2 Bft) O 0,00 h 0,025 mm 0,0 UV-I 5 W/m 1,2 C 0,7 C 15,3 km/h (3 Bft)
25.11.2014 17:00 2,7 C 89 % 1025,3 hPa 0,0 l/m 6,4 km/h (2 Bft) O 0,00 h 0,000 mm 0,0 UV-I 0 W/m 1,1 C 1,7 C 12,4 km/h (2 Bft)
25.11.2014 18:00 2,8 C 86 % 1025,2 hPa 0,0 l/m 8,7 km/h (2 Bft) O 0,00 h 0,000 mm 0,0 UV-I 0 W/m 0,7 C 0,4 C 16,4 km/h (3 Bft)
25.11.2014 19:00 2,7 C 87 % 1025,2 hPa 0,0 l/m 6,7 km/h (2 Bft) O 0,00 h 0,025 mm 0,0 UV-I 0 W/m 0,8 C 1,7 C 14,0 km/h (3 Bft)
25.11.2014 20:00 2,7 C 87 % 1025,0 hPa 0,0 l/m 6,2 km/h (2 Bft) O 0,00 h 0,000 mm 0,0 UV-I 0 W/m 0,8 C 1,8 C 12,4 km/h (2 Bft)
25.11.2014 21:00 2,7 C 87 % 1024,9 hPa 0,0 l/m 7,8 km/h (2 Bft) O-SO 0,00 h 0,000 mm 0,0 UV-I 0 W/m 0,7 C 0,8 C 14,9 km/h (3 Bft)
25.11.2014 22:00 2,6 C 86 % 1024,8 hPa 0,0 l/m 7,0 km/h (2 Bft) O-SO 0,00 h 0,025 mm 0,0 UV-I 0 W/m 0,6 C 1,0 C 12,8 km/h (3 Bft)
25.11.2014 23:00 2,5 C 85 % 1024,3 hPa 0,0 l/m 5,7 km/h (2 Bft) O 0,00 h 0,000 mm 0,0 UV-I 0 W/m 0,3 C 1,6 C 12,9 km/h (3 Bft)
26.11.2014 00:00 2,3 C 85 % 1023,6 hPa 0,0 l/m 7,2 km/h (2 Bft) O 0,00 h 0,000 mm 0,0 UV-I 0 W/m 0,0 C 0,8 C 15,2 km/h (3 Bft)
26.11.2014 01:00 2,1 C 85 % 1022,9 hPa 0,0 l/m 10,0 km/h (2 Bft) O 0,00 h 0,025 mm 0,0 UV-I 0 W/m -0,1 C -1,0 C 18,7 km/h (3 Bft)
26.11.2014 02:00 2,0 C 85 % 1022,4 hPa 0,0 l/m 11,5 km/h (2 Bft) O 0,00 h 0,025 mm 0,0 UV-I 0 W/m -0,2 C -2,1 C 19,7 km/h (3 Bft)
26.11.2014 03:00 1,9 C 86 % 1022,1 hPa 0,0 l/m 7,1 km/h (2 Bft) O 0,00 h 0,025 mm 0,0 UV-I 0 W/m -0,2 C 0,2 C 14,5 km/h (3 Bft)
26.11.2014 04:00 1,8 C 85 % 1021,8 hPa 0,0 l/m 7,0 km/h (2 Bft) O 0,00 h 0,000 mm 0,0 UV-I 0 W/m -0,4 C 0,4 C 15,2 km/h (3 Bft)
26.11.2014 05:00 1,7 C 86 % 1021,4 hPa 0,0 l/m 7,7 km/h (2 Bft) O 0,00 h 0,025 mm 0,0 UV-I 0 W/m -0,5 C -0,1 C 16,3 km/h (3 Bft)
26.11.2014 06:00 1,7 C 86 % 1021,3 hPa 0,0 l/m 5,0 km/h (1 Bft) O 0,00 h 0,025 mm 0,0 UV-I 0 W/m -0,5 C 1,0 C 10,9 km/h (2 Bft)
26.11.2014 07:00 1,6 C 86 % 1021,3 hPa 0,0 l/m 4,9 km/h (1 Bft) O-NO 0,00 h 0,000 mm 0,0 UV-I 7 W/m -0,5 C 1,1 C 11,5 km/h (2 Bft)
26.11.2014 08:00 1,6 C 86 % 1021,3 hPa 0,0 l/m 5,1 km/h (1 Bft) O 0,43 h 0,000 mm 0,0 UV-I 42 W/m -0,5 C 1,0 C 12,2 km/h (2 Bft)
26.11.2014 09:00 2,1 C 84 % 1021,3 hPa 0,0 l/m 6,2 km/h (2 Bft) O-SO 1,00 h 0,025 mm 0,5 UV-I 98 W/m -0,3 C 1,1 C 12,8 km/h (3 Bft)
26.11.2014 10:00 2,3 C 83 % 1021,2 hPa 0,0 l/m 8,6 km/h (2 Bft) O 1,00 h 0,051 mm 0,7 UV-I 124 W/m -0,3 C -0,0 C 16,7 km/h (3 Bft)
26.11.2014 11:00 3,0 C 81 % 1020,7 hPa 0,0 l/m 8,0 km/h (2 Bft) O-SO 1,00 h 0,051 mm 0,9 UV-I 243 W/m 0,2 C 1,3 C 15,1 km/h (3 Bft)
26.11.2014 12:00 3,1 C 82 % 1020,2 hPa 0,0 l/m 7,2 km/h (2 Bft) O-NO 1,00 h 0,104 mm 0,7 UV-I 143 W/m 0,3 C 1,6 C 14,0 km/h (3 Bft)
26.11.2014 13:00 2,7 C 83 % 1019,8 hPa 0,0 l/m 8,4 km/h (2 Bft) O 1,00 h 0,076 mm 0,6 UV-I 101 W/m 0,1 C 0,5 C 16,1 km/h (3 Bft)
26.11.2014 14:00 2,5 C 83 % 1019,3 hPa 0,0 l/m 9,4 km/h (2 Bft) O 0,67 h 0,051 mm 0,5 UV-I 58 W/m -0,1 C -0,2 C 17,9 km/h (3 Bft)
26.11.2014 15:00 2,2 C 84 % 1019,1 hPa 0,0 l/m 8,6 km/h (2 Bft) O-SO 0,00 h 0,025 mm 0,0 UV-I 14 W/m -0,3 C -0,3 C 16,8 km/h (3 Bft)
26.11.2014 16:00 2,0 C 85 % 1018,8 hPa 0,0 l/m 7,5 km/h (2 Bft) O-SO 0,00 h 0,025 mm 0,0 UV-I 5 W/m -0,2 C 0,4 C 15,1 km/h (3 Bft)
26.11.2014 17:00 2,0 C 85 % 1018,6 hPa 0,0 l/m 8,4 km/h (2 Bft) O-SO 0,00 h 0,000 mm 0,0 UV-I 0 W/m -0,3 C -0,1 C 16,4 km/h (3 Bft)
26.11.2014 18:00 1,9 C 84 % 1018,6 hPa 0,0 l/m 7,7 km/h (2 Bft) O 0,00 h 0,025 mm 0,0 UV-I 0 W/m -0,5 C -0,0 C 15,0 km/h (3 Bft)
26.11.2014 19:00 1,9 C 84 % 1018,6 hPa 0,0 l/m 6,3 km/h (2 Bft) SO 0,00 h 0,025 mm 0,0 UV-I 0 W/m -0,5 C 0,9 C 12,1 km/h (2 Bft)
26.11.2014 20:00 1,8 C 84 % 1018,4 hPa 0,0 l/m 7,6 km/h (2 Bft) O-SO 0,00 h 0,025 mm 0,0 UV-I 0 W/m -0,6 C -0,0 C 14,8 km/h (3 Bft)
26.11.2014 21:00 1,8 C 84 % 1018,1 hPa 0,0 l/m 5,8 km/h (2 Bft) O 0,00 h 0,025 mm 0,0 UV-I 0 W/m -0,6 C 0,9 C 11,9 km/h (2 Bft)
26.11.2014 22:00 1,7 C 85 % 1017,8 hPa 0,0 l/m 3,8 km/h (1 Bft) SO 0,00 h 0,027 mm 0,0 UV-I 0 W/m -0,5 C 1,5 C 8,3 km/h (2 Bft)
26.11.2014 23:00 1,8 C 85 % 1017,4 hPa 0,0 l/m 4,4 km/h (1 Bft) O-SO 0,00 h 0,000 mm 0,0 UV-I 0 W/m -0,5 C 1,5 C 9,3 km/h (2 Bft)
27.11.2014 00:00 1,7 C 86 % 1016,9 hPa 0,0 l/m 3,5 km/h (1 Bft) SO 0,00 h 0,000 mm 0,0 UV-I 0 W/m -0,4 C 1,6 C 7,9 km/h (2 Bft)
27.11.2014 01:00 1,7 C 86 % 1016,6 hPa 0,0 l/m 5,0 km/h (1 Bft) O-SO 0,00 h 0,000 mm 0,0 UV-I 0 W/m -0,3 C 1,1 C 9,8 km/h (2 Bft)
27.11.2014 02:00 1,7 C 87 % 1016,2 hPa 0,0 l/m 5,5 km/h (2 Bft) SO 0,00 h 0,000 mm 0,0 UV-I 0 W/m -0,2 C 1,2 C 10,7 km/h (2 Bft)
27.11.2014 03:00 1,6 C 87 % 1015,6 hPa 0,0 l/m 6,6 km/h (2 Bft) SO 0,00 h 0,000 mm 0,0 UV-I 0 W/m -0,3 C 0,5 C 12,6 km/h (2 Bft)
27.11.2014 04:00 1,6 C 87 % 1015,1 hPa 0,0 l/m 6,1 km/h (2 Bft) O-SO 0,00 h 0,000 mm 0,0 UV-I 0 W/m -0,3 C 0,6 C 11,4 km/h (2 Bft)
27.11.2014 05:00 1,5 C 88 % 1014,8 hPa 0,0 l/m 4,2 km/h (1 Bft) O 0,00 h 0,000 mm 0,0 UV-I 0 W/m -0,3 C 1,3 C 8,8 km/h (2 Bft)
27.11.2014 06:00 1,4 C 88 % 1014,6 hPa 0,0 l/m 6,6 km/h (2 Bft) O-SO 0,00 h 0,000 mm 0,0 UV-I 0 W/m -0,3 C 0,1 C 12,5 km/h (2 Bft)
27.11.2014 07:00 1,3 C 89 % 1014,5 hPa 0,0 l/m 7,3 km/h (2 Bft) O-SO 0,00 h 0,000 mm 0,0 UV-I 0 W/m -0,3 C -0,2 C 14,1 km/h (3 Bft)
27.11.2014 08:00 1,4 C 89 % 1014,6 hPa 0,0 l/m 5,7 km/h (2 Bft) SO 0,00 h 0,000 mm 0,0 UV-I 10 W/m -0,2 C 0,6 C 11,8 km/h (2 Bft)
27.11.2014 09:00 1,4 C 89 % 1014,8 hPa 0,0 l/m 8,1 km/h (2 Bft) O-SO 0,00 h 0,000 mm 0,0 UV-I 20 W/m -0,2 C -0,4 C 14,9 km/h (3 Bft)
27.11.2014 10:00 1,5 C 89 % 1014,6 hPa 0,0 l/m 5,9 km/h (2 Bft) O-SO 0,02 h 0,025 mm 0,0 UV-I 35 W/m -0,1 C 0,7 C 11,2 km/h (2 Bft)
27.11.2014 11:00 1,5 C 90 % 1014,1 hPa 0,0 l/m 6,2 km/h (2 Bft) O-SO 0,00 h 0,025 mm 0,0 UV-I 36 W/m 0,0 C 0,3 C 12,2 km/h (2 Bft)
27.11.2014 12:00 1,5 C 91 % 1013,7 hPa 0,0 l/m 5,5 km/h (2 Bft) SO 0,00 h 0,025 mm 0,0 UV-I 34 W/m 0,2 C 0,7 C 10,2 km/h (2 Bft)
27.11.2014 13:00 1,4 C 92 % 1013,3 hPa 0,0 l/m 5,9 km/h (2 Bft) O 0,00 h 0,025 mm 0,0 UV-I 27 W/m 0,2 C 0,6 C 12,3 km/h (2 Bft)
27.11.2014 14:00 1,5 C 92 % 1012,9 hPa 0,0 l/m 6,0 km/h (2 Bft) O 0,00 h 0,025 mm 0,0 UV-I 21 W/m 0,3 C 0,6 C 12,5 km/h (2 Bft)
27.11.2014 15:00 1,5 C 93 % 1012,9 hPa 0,0 l/m 6,7 km/h (2 Bft) O 0,00 h 0,000 mm 0,0 UV-I 5 W/m 0,5 C 0,3 C 14,1 km/h (3 Bft)
27.11.2014 16:00 1,4 C 93 % 1013,1 hPa 0,0 l/m 6,0 km/h (2 Bft) O-SO 0,00 h 0,000 mm 0,0 UV-I 0 W/m 0,4 C 0,4 C 12,3 km/h (2 Bft)
27.11.2014 17:00 1,3 C 93 % 1013,3 hPa 0,0 l/m 5,2 km/h (1 Bft) O-SO 0,00 h 0,000 mm 0,0 UV-I 0 W/m 0,3 C 0,8 C 11,0 km/h (2 Bft)
27.11.2014 18:00 1,2 C 92 % 1013,3 hPa 0,0 l/m 6,2 km/h (2 Bft) O 0,00 h 0,000 mm 0,0 UV-I 0 W/m 0,0 C 0,2 C 13,0 km/h (3 Bft)
27.11.2014 19:00 1,1 C 92 % 1013,4 hPa 0,0 l/m 5,7 km/h (2 Bft) O 0,00 h 0,000 mm 0,0 UV-I 0 W/m -0,1 C 0,2 C 11,9 km/h (2 Bft)
27.11.2014 20:00 0,8 C 92 % 1013,6 hPa 0,0 l/m 5,7 km/h (2 Bft) O 0,00 h 0,000 mm 0,0 UV-I 0 W/m -0,3 C 0,1 C 12,1 km/h (2 Bft)
27.11.2014 21:00 0,7 C 92 % 1014,0 hPa 0,0 l/m 5,8 km/h (2 Bft) O-SO 0,00 h 0,000 mm 0,0 UV-I 0 W/m -0,4 C -0,0 C 12,3 km/h (2 Bft)
27.11.2014 22:00 0,7 C 92 % 1014,2 hPa 0,0 l/m 4,1 km/h (1 Bft) O 0,00 h 0,002 mm 0,0 UV-I 0 W/m -0,4 C 0,4 C 8,9 km/h (2 Bft)
27.11.2014 23:00 0,6 C 92 % 1014,3 hPa 0,0 l/m 5,0 km/h (1 Bft) O 0,00 h 0,000 mm 0,0 UV-I 0 W/m -0,5 C 0,2 C 10,6 km/h (2 Bft)
28.11.2014 00:00 0,6 C 93 % 1014,3 hPa 0,0 l/m 4,8 km/h (1 Bft) O 0,00 h 0,000 mm 0,0 UV-I 0 W/m -0,4 C 0,2 C 10,1 km/h (2 Bft)
28.11.2014 01:00 0,5 C 93 % 1014,2 hPa 0,0 l/m 6,1 km/h (2 Bft) O 0,00 h 0,000 mm 0,0 UV-I 0 W/m -0,5 C -0,5 C 12,9 km/h (3 Bft)
28.11.2014 02:00 0,4 C 93 % 1014,4 hPa 0,0 l/m 6,6 km/h (2 Bft) O 0,00 h 0,000 mm 0,0 UV-I 0 W/m -0,6 C -0,7 C 14,2 km/h (3 Bft)
28.11.2014 03:00 0,3 C 94 % 1014,4 hPa 0,0 l/m 5,4 km/h (1 Bft) O 0,00 h 0,000 mm 0,0 UV-I 0 W/m -0,5 C -0,4 C 10,8 km/h (2 Bft)
28.11.2014 04:00 0,3 C 94 % 1014,4 hPa 0,0 l/m 6,4 km/h (2 Bft) O 0,00 h 0,000 mm 0,0 UV-I 0 W/m -0,5 C -0,7 C 12,7 km/h (3 Bft)
28.11.2014 05:00 0,2 C 95 % 1014,5 hPa 0,0 l/m 4,9 km/h (1 Bft) O-NO 0,00 h 0,000 mm 0,0 UV-I 0 W/m -0,5 C -0,3 C 10,7 km/h (2 Bft)
28.11.2014 06:00 0,2 C 95 % 1014,6 hPa 0,0 l/m 5,6 km/h (2 Bft) O 0,00 h 0,000 mm 0,0 UV-I 0 W/m -0,5 C -0,6 C 12,0 km/h (2 Bft)
28.11.2014 07:00 0,1 C 95 % 1015,0 hPa 0,0 l/m 6,1 km/h (2 Bft) O-SO 0,00 h 0,000 mm 0,0 UV-I 0 W/m -0,6 C -0,7 C 12,6 km/h (3 Bft)
28.11.2014 08:00 0,1 C 95 % 1015,1 hPa 0,0 l/m 6,8 km/h (2 Bft) O 0,00 h 0,000 mm 0,0 UV-I 10 W/m -0,6 C -1,3 C 13,8 km/h (3 Bft)
28.11.2014 09:00 0,1 C 95 % 1015,5 hPa 0,0 l/m 6,6 km/h (2 Bft) O-NO 0,00 h 0,000 mm 0,0 UV-I 25 W/m -0,6 C -1,0 C 13,4 km/h (3 Bft)
28.11.2014 10:00 0,3 C 95 % 1015,8 hPa 0,0 l/m 7,9 km/h (2 Bft) O 0,00 h 0,000 mm 0,0 UV-I 39 W/m -0,5 C -1,7 C 15,2 km/h (3 Bft)
28.11.2014 11:00 0,4 C 94 % 1015,7 hPa 0,0 l/m 6,7 km/h (2 Bft) O 0,48 h 0,025 mm 0,0 UV-I 49 W/m -0,5 C -0,9 C 13,7 km/h (3 Bft)
28.11.2014 12:00 0,6 C 95 % 1015,5 hPa 0,0 l/m 6,6 km/h (2 Bft) O-NO 0,15 h 0,025 mm 0,0 UV-I 47 W/m -0,2 C -0,5 C 13,0 km/h (3 Bft)
28.11.2014 13:00 0,6 C 94 % 1015,3 hPa 0,0 l/m 7,3 km/h (2 Bft) O-NO 0,00 h 0,025 mm 0,0 UV-I 41 W/m -0,2 C -1,0 C 13,9 km/h (3 Bft)
28.11.2014 14:00 0,5 C 94 % 1015,1 hPa 0,0 l/m 7,5 km/h (2 Bft) O 0,00 h 0,025 mm 0,0 UV-I 26 W/m -0,3 C -1,5 C 14,9 km/h (3 Bft)
28.11.2014 15:00 0,4 C 95 % 1015,4 hPa 0,0 l/m 9,6 km/h (2 Bft) O 0,00 h 0,000 mm 0,0 UV-I 10 W/m -0,3 C -2,8 C 17,6 km/h (3 Bft)
28.11.2014 16:00 0,3 C 95 % 1015,6 hPa 0,0 l/m 7,3 km/h (2 Bft) O 0,00 h 0,000 mm 0,0 UV-I 0 W/m -0,4 C -1,5 C 13,7 km/h (3 Bft)
28.11.2014 17:00 0,1 C 95 % 1015,9 hPa 0,0 l/m 10,5 km/h (2 Bft) O 0,00 h 0,000 mm 0,0 UV-I 0 W/m -0,6 C -3,6 C 20,4 km/h (4 Bft)
28.11.2014 18:00 0,1 C 95 % 1016,3 hPa 0,0 l/m 7,9 km/h (2 Bft) O 0,00 h 0,000 mm 0,0 UV-I 0 W/m -0,5 C -2,0 C 15,3 km/h (3 Bft)
28.11.2014 19:00 0,1 C 95 % 1016,6 hPa 0,0 l/m 11,3 km/h (2 Bft) O 0,00 h 0,000 mm 0,0 UV-I 0 W/m -0,5 C -4,2 C 19,8 km/h (4 Bft)
28.11.2014 20:00 0,3 C 95 % 1016,9 hPa 0,0 l/m 8,2 km/h (2 Bft) O 0,00 h 0,000 mm 0,0 UV-I 0 W/m -0,4 C -2,1 C 15,6 km/h (3 Bft)
28.11.2014 21:00 0,2 C 95 % 1017,1 hPa 0,0 l/m 9,5 km/h (2 Bft) O 0,00 h 0,000 mm 0,0 UV-I 0 W/m -0,4 C -2,8 C 17,7 km/h (3 Bft)
28.11.2014 22:00 0,2 C 96 % 1017,2 hPa 0,0 l/m 9,4 km/h (2 Bft) O 0,00 h 0,002 mm 0,0 UV-I 0 W/m -0,4 C -2,7 C 17,4 km/h (3 Bft)
28.11.2014 23:00 0,2 C 95 % 1017,4 hPa 0,0 l/m 8,1 km/h (2 Bft) O-NO 0,00 h 0,000 mm 0,0 UV-I 0 W/m -0,4 C -1,9 C 14,7 km/h (3 Bft)
29.11.2014 00:00 0,2 C 95 % 1017,5 hPa 0,0 l/m 9,2 km/h (2 Bft) O 0,00 h 0,000 mm 0,0 UV-I 0 W/m -0,5 C -2,6 C 17,6 km/h (3 Bft)
29.11.2014 01:00 0,2 C 95 % 1017,6 hPa 0,0 l/m 8,6 km/h (2 Bft) O-NO 0,00 h 0,000 mm 0,0 UV-I 0 W/m -0,5 C -2,3 C 17,1 km/h (3 Bft)
29.11.2014 02:00 0,2 C 95 % 1017,7 hPa 0,0 l/m 8,0 km/h (2 Bft) O-NO 0,00 h 0,000 mm 0,0 UV-I 0 W/m -0,5 C -2,1 C 15,9 km/h (3 Bft)
29.11.2014 03:00 0,2 C 95 % 1017,7 hPa 0,0 l/m 9,1 km/h (2 Bft) O-NO 0,00 h 0,000 mm 0,0 UV-I 0 W/m -0,5 C -2,7 C 17,1 km/h (3 Bft)
29.11.2014 04:00 0,1 C 95 % 1017,6 hPa 0,0 l/m 6,4 km/h (2 Bft) O 0,00 h 0,000 mm 0,0 UV-I 0 W/m -0,6 C -1,2 C 14,0 km/h (3 Bft)
29.11.2014 05:00 0,2 C 95 % 1017,6 hPa 0,0 l/m 6,3 km/h (2 Bft) O 0,00 h 0,000 mm 0,0 UV-I 0 W/m -0,5 C -1,2 C 13,4 km/h (3 Bft)
29.11.2014 06:00 0,1 C 95 % 1017,6 hPa 0,0 l/m 8,4 km/h (2 Bft) O 0,00 h 0,000 mm 0,0 UV-I 0 W/m -0,6 C -2,5 C 15,8 km/h (3 Bft)
29.11.2014 07:00 0,1 C 95 % 1018,1 hPa 0,0 l/m 7,5 km/h (2 Bft) O 0,00 h 0,000 mm 0,0 UV-I 0 W/m -0,6 C -1,8 C 14,5 km/h (3 Bft)
29.11.2014 08:00 0,3 C 95 % 1018,6 hPa 0,0 l/m 5,6 km/h (2 Bft) O 0,00 h 0,000 mm 0,0 UV-I 9 W/m -0,4 C -0,8 C 11,4 km/h (2 Bft)
29.11.2014 09:00 0,4 C 95 % 1018,8 hPa 0,0 l/m 6,6 km/h (2 Bft) O 0,00 h 0,000 mm 0,0 UV-I 21 W/m -0,3 C -0,9 C 13,1 km/h (3 Bft)
29.11.2014 10:00 0,6 C 94 % 1018,9 hPa 0,0 l/m 6,6 km/h (2 Bft) O 0,00 h 0,000 mm 0,0 UV-I 37 W/m -0,2 C -0,7 C 13,3 km/h (3 Bft)
29.11.2014 11:00 0,9 C 94 % 1018,6 hPa 0,0 l/m 5,7 km/h (2 Bft) O 0,00 h 0,025 mm 0,0 UV-I 43 W/m 0,0 C 0,1 C 13,0 km/h (3 Bft)
29.11.2014 12:00 1,0 C 94 % 1018,2 hPa 0,0 l/m 7,5 km/h (2 Bft) O 0,08 h 0,025 mm 0,0 UV-I 46 W/m 0,1 C -0,8 C 14,7 km/h (3 Bft)
29.11.2014 13:00 1,0 C 94 % 1017,8 hPa 0,0 l/m 6,7 km/h (2 Bft) O 0,00 h 0,025 mm 0,0 UV-I 38 W/m 0,1 C -0,3 C 13,9 km/h (3 Bft)
29.11.2014 14:00 0,9 C 94 % 1017,8 hPa 0,0 l/m 7,5 km/h (2 Bft) O 0,00 h 0,025 mm 0,0 UV-I 23 W/m 0,1 C -1,0 C 14,8 km/h (3 Bft)
29.11.2014 15:00 1,0 C 94 % 1017,9 hPa 0,0 l/m 3,9 km/h (1 Bft) O 0,00 h 0,000 mm 0,0 UV-I 8 W/m 0,1 C 0,7 C 9,1 km/h (2 Bft)
29.11.2014 16:00 0,9 C 94 % 1018,0 hPa 0,0 l/m 7,0 km/h (2 Bft) O 0,00 h 0,000 mm 0,0 UV-I 0 W/m 0,0 C -0,9 C 13,3 km/h (3 Bft)
29.11.2014 17:00 0,9 C 94 % 1017,9 hPa 0,0 l/m 8,0 km/h (2 Bft) O 0,00 h 0,000 mm 0,0 UV-I 0 W/m 0,0 C -1,1 C 15,3 km/h (3 Bft)
29.11.2014 18:00 0,9 C 94 % 1018,0 hPa 0,0 l/m 8,0 km/h (2 Bft) O 0,00 h 0,000 mm 0,0 UV-I 0 W/m 0,0 C -1,0 C 15,6 km/h (3 Bft)
29.11.2014 19:00 0,9 C 94 % 1018,1 hPa 0,0 l/m 6,0 km/h (2 Bft) O 0,00 h 0,000 mm 0,0 UV-I 0 W/m 0,1 C -0,3 C 12,9 km/h (3 Bft)
29.11.2014 20:00 0,9 C 95 % 1018,2 hPa 0,0 l/m 4,9 km/h (1 Bft) O 0,00 h 0,000 mm 0,0 UV-I 0 W/m 0,2 C 0,4 C 10,4 km/h (2 Bft)
29.11.2014 21:00 0,9 C 94 % 1018,2 hPa 0,0 l/m 7,8 km/h (2 Bft) O 0,00 h 0,000 mm 0,0 UV-I 0 W/m 0,1 C -1,0 C 14,9 km/h (3 Bft)
29.11.2014 22:00 1,0 C 94 % 1018,0 hPa 0,0 l/m 6,5 km/h (2 Bft) O-NO 0,00 h 0,002 mm 0,0 UV-I 0 W/m 0,1 C -0,0 C 13,1 km/h (3 Bft)
29.11.2014 23:00 1,0 C 94 % 1017,9 hPa 0,0 l/m 8,0 km/h (2 Bft) O 0,00 h 0,000 mm 0,0 UV-I 0 W/m 0,2 C -1,2 C 14,8 km/h (3 Bft)
30.11.2014 00:00 1,0 C 95 % 1017,4 hPa 0,0 l/m 6,8 km/h (2 Bft) O 0,00 h 0,000 mm 0,0 UV-I 0 W/m 0,3 C -0,5 C 13,5 km/h (3 Bft)
30.11.2014 01:00 0,9 C 95 % 1017,2 hPa 0,0 l/m 8,7 km/h (2 Bft) O 0,00 h 0,000 mm 0,0 UV-I 0 W/m 0,2 C -1,5 C 15,7 km/h (3 Bft)
30.11.2014 02:00 0,9 C 94 % 1017,1 hPa 0,0 l/m 7,7 km/h (2 Bft) O 0,00 h 0,000 mm 0,0 UV-I 0 W/m 0,1 C -1,0 C 15,4 km/h (3 Bft)
30.11.2014 03:00 0,9 C 94 % 1017,1 hPa 0,0 l/m 6,8 km/h (2 Bft) O 0,00 h 0,000 mm 0,0 UV-I 0 W/m 0,1 C -0,4 C 12,9 km/h (3 Bft)
30.11.2014 04:00 1,0 C 94 % 1016,5 hPa 0,0 l/m 5,5 km/h (2 Bft) O 0,00 h 0,000 mm 0,0 UV-I 0 W/m 0,1 C 0,1 C 12,2 km/h (2 Bft)
30.11.2014 05:00 1,1 C 94 % 1015,8 hPa 0,0 l/m 5,7 km/h (2 Bft) O 0,00 h 0,000 mm 0,0 UV-I 0 W/m 0,2 C 0,1 C 11,9 km/h (2 Bft)
30.11.2014 06:00 1,2 C 95 % 1015,8 hPa 0,0 l/m 5,1 km/h (1 Bft) O 0,00 h 0,000 mm 0,0 UV-I 0 W/m 0,4 C 0,5 C 10,9 km/h (2 Bft)
30.11.2014 07:00 1,2 C 95 % 1015,8 hPa 0,0 l/m 7,6 km/h (2 Bft) O 0,00 h 0,000 mm 0,0 UV-I 0 W/m 0,5 C -0,6 C 14,9 km/h (3 Bft)
30.11.2014 08:00 1,3 C 94 % 1016,4 hPa 0,0 l/m 5,4 km/h (1 Bft) O 0,00 h 0,000 mm 0,0 UV-I 15 W/m 0,5 C 0,6 C 11,1 km/h (2 Bft)
30.11.2014 09:00 1,5 C 94 % 1016,5 hPa 0,0 l/m 5,7 km/h (2 Bft) O 0,02 h 0,000 mm 0,0 UV-I 38 W/m 0,6 C 0,7 C 11,8 km/h (2 Bft)
30.11.2014 10:00 1,8 C 93 % 1016,1 hPa 0,0 l/m 6,1 km/h (2 Bft) O-SO 0,70 h 0,025 mm 0,0 UV-I 55 W/m 0,8 C 0,8 C 12,6 km/h (3 Bft)
30.11.2014 11:00 2,1 C 92 % 1015,7 hPa 0,0 l/m 6,7 km/h (2 Bft) O 0,83 h 0,025 mm 0,5 UV-I 58 W/m 1,0 C 0,8 C 13,3 km/h (3 Bft)
30.11.2014 12:00 2,2 C 92 % 1015,4 hPa 0,0 l/m 5,5 km/h (2 Bft) SO 0,00 h 0,025 mm 0,0 UV-I 42 W/m 1,0 C 1,4 C 11,4 km/h (2 Bft)
30.11.2014 13:00 2,2 C 93 % 1014,7 hPa 0,0 l/m 5,4 km/h (1 Bft) O-SO 0,00 h 0,025 mm 0,0 UV-I 33 W/m 1,1 C 1,4 C 11,3 km/h (2 Bft)
30.11.2014 14:00 2,2 C 93 % 1014,0 hPa 0,0 l/m 7,2 km/h (2 Bft) O 0,00 h 0,025 mm 0,0 UV-I 23 W/m 1,2 C 0,8 C 15,1 km/h (3 Bft)
30.11.2014 15:00 2,2 C 93 % 1013,7 hPa 0,0 l/m 7,4 km/h (2 Bft) O-SO 0,00 h 0,000 mm 0,0 UV-I 10 W/m 1,2 C 0,7 C 15,2 km/h (3 Bft)
30.11.2014 16:00 2,2 C 93 % 1013,7 hPa 0,0 l/m 5,7 km/h (2 Bft) O 0,00 h 0,000 mm 0,0 UV-I 0 W/m 1,2 C 1,4 C 11,8 km/h (2 Bft)
30.11.2014 17:00 2,1 C 94 % 1013,7 hPa 0,0 l/m 8,5 km/h (2 Bft) O-SO 0,00 h 0,000 mm 0,0 UV-I 0 W/m 1,2 C -0,0 C 16,4 km/h (3 Bft)
30.11.2014 18:00 1,9 C 94 % 1013,6 hPa 0,0 l/m 5,3 km/h (1 Bft) O-SO 0,00 h 0,000 mm 0,0 UV-I 0 W/m 1,1 C 1,2 C 11,3 km/h (2 Bft)
30.11.2014 19:00 1,9 C 94 % 1013,5 hPa 0,0 l/m 6,3 km/h (2 Bft) O 0,00 h 0,000 mm 0,0 UV-I 0 W/m 1,0 C 0,8 C 13,0 km/h (3 Bft)
30.11.2014 20:00 1,7 C 94 % 1013,4 hPa 0,0 l/m 8,7 km/h (2 Bft) O 0,00 h 0,000 mm 0,0 UV-I 0 W/m 0,9 C -0,6 C 17,4 km/h (3 Bft)
30.11.2014 21:00 1,6 C 94 % 1013,2 hPa 0,0 l/m 7,9 km/h (2 Bft) O 0,00 h 0,000 mm 0,0 UV-I 0 W/m 0,8 C -0,3 C 16,1 km/h (3 Bft)
30.11.2014 22:00 1,4 C 93 % 1012,8 hPa 0,0 l/m 8,4 km/h (2 Bft) O 0,00 h 0,002 mm 0,0 UV-I 0 W/m 0,4 C -1,0 C 16,4 km/h (3 Bft)
30.11.2014 23:00 1,3 C 93 % 1012,3 hPa 0,0 l/m 7,1 km/h (2 Bft) O 0,00 h 0,000 mm 0,0 UV-I 0 W/m 0,3 C -0,2 C 14,1 km/h (3 Bft)
Min-Datum _ 25.11.14 26.11.14 30.11.14 - 24.11.14 - - - - - 25.11.14 28.11.14 24.11.14
_ Min-Zeit 07:13 11:54 23:57 - 00:02 - - - - - 07:13 19:27 00:02
Minimum _ -0,7 C 79 % 1012,1 hPa - 0,0 km/h (0 Bft) - - - - - -1,4 C -9,8 C 0,0 km/h (0 Bft)
Max-Datum _ 25.11.14 24.11.14 24.11.14 24.11.14 28.11.14 - 25.11.14 25.11.14 25.11.14 26.11.14 24.11.14 25.11.14 28.11.14
_ Max-Zeit 12:28 08:39 23:41 00:00 19:27 - 08:53 14:00 12:17 11:50 20:08 12:29 17:11
Maximum _ 6,4 C 98 % 1027,6 hPa 0,0 l/m 20,9 km/h
O (4 Bft)
- 0,07 h 0,127 mm 1,1 UV-I 408 W/m 4,5 C 6,4 C 35,4 km/h
O (5 Bft)
Durchschnitt _ 1,8 C 92 % 1019,2 hPa #0,0 l/m 5,5 km/h (2 Bft) O #17:21 h #1,802 mm 0,6 UV-I 54 W/m 0,6 C 0,6 C 11,0 km/h (2 Bft)